createdAt,value
2018-07-12T00:01:54.466Z,99073.00
2018-07-12T00:03:56.688Z,99079.00
2018-07-12T00:05:59.191Z,99081.00
2018-07-12T00:08:01.608Z,99084.00
2018-07-12T00:10:04.658Z,99082.00
2018-07-12T00:12:10.435Z,99080.00
2018-07-12T00:14:14.334Z,99084.00
2018-07-12T00:16:17.378Z,99085.00
2018-07-12T00:18:23.445Z,99084.00
2018-07-12T00:20:25.743Z,99081.00
2018-07-12T00:22:27.970Z,99086.00
2018-07-12T00:24:30.538Z,99091.00
2018-07-12T00:26:33.623Z,99080.00
2018-07-12T00:28:36.125Z,99074.00
2018-07-12T00:30:38.603Z,99072.00
2018-07-12T00:32:41.151Z,99078.00
2018-07-12T00:34:43.549Z,99077.00
2018-07-12T00:36:45.788Z,99074.00
2018-07-12T00:38:48.130Z,99074.00
2018-07-12T00:40:50.362Z,99071.00
2018-07-12T00:42:52.719Z,99069.00
2018-07-12T00:44:56.190Z,99070.00
2018-07-12T00:46:58.515Z,99073.00
2018-07-12T00:49:00.862Z,99072.00
2018-07-12T00:51:06.510Z,99075.00
2018-07-12T00:53:08.864Z,99073.00
2018-07-12T00:55:13.236Z,99068.00
2018-07-12T00:57:17.480Z,99068.00
2018-07-12T00:59:22.561Z,99072.00
2018-07-12T01:01:26.819Z,99083.00
2018-07-12T01:03:29.270Z,99081.00
2018-07-12T01:05:31.497Z,99079.00
2018-07-12T01:07:33.739Z,99081.00
2018-07-12T01:09:36.277Z,99082.00
2018-07-12T01:11:38.511Z,99079.00
2018-07-12T01:13:41.531Z,99076.00
2018-07-12T01:15:44.031Z,99079.00
2018-07-12T01:17:46.280Z,99073.00
2018-07-12T01:19:48.632Z,99078.00
2018-07-12T01:21:51.114Z,99075.00
2018-07-12T01:23:53.406Z,99073.00
2018-07-12T01:25:55.597Z,99074.00
2018-07-12T01:27:57.836Z,99075.00
2018-07-12T01:30:00.120Z,99080.00
2018-07-12T01:32:02.572Z,99089.00
2018-07-12T01:34:07.187Z,99093.00
2018-07-12T01:36:12.708Z,99094.00
2018-07-12T01:38:16.355Z,99090.00
2018-07-12T01:40:20.842Z,99089.00
2018-07-12T01:42:24.087Z,99075.00
2018-07-12T01:44:26.366Z,99068.00
2018-07-12T01:46:28.589Z,99074.00
2018-07-12T01:48:30.901Z,99078.00
2018-07-12T01:50:33.397Z,99073.00
2018-07-12T01:52:35.773Z,99071.00
2018-07-12T01:54:38.406Z,99072.00
2018-07-12T01:56:40.766Z,99075.00
2018-07-12T01:58:43.147Z,99075.00
2018-07-12T02:00:46.130Z,99076.00
2018-07-12T02:02:48.366Z,99074.00
2018-07-12T02:04:50.569Z,99073.00
2018-07-12T02:06:52.923Z,99076.00
2018-07-12T02:08:55.160Z,99074.00
2018-07-12T02:10:57.388Z,99074.00
2018-07-12T02:12:59.783Z,99076.00
2018-07-12T02:15:02.356Z,99071.00
2018-07-12T02:17:06.530Z,99072.00
2018-07-12T02:19:12.196Z,99071.00
2018-07-12T02:21:17.311Z,99069.00
2018-07-12T02:23:20.613Z,99071.00
2018-07-12T02:25:23.407Z,99070.00
2018-07-12T02:27:25.606Z,99061.00
2018-07-12T02:29:27.897Z,99069.00
2018-07-12T02:31:30.720Z,99069.00
2018-07-12T02:33:33.046Z,99061.00
2018-07-12T02:35:35.267Z,99063.00
2018-07-12T02:37:37.762Z,99059.00
2018-07-12T02:39:40.245Z,99069.00
2018-07-12T02:41:43.040Z,99069.00
2018-07-12T02:43:45.805Z,99071.00
2018-07-12T02:45:48.154Z,99063.00
2018-07-12T02:47:50.650Z,99063.00
2018-07-12T02:49:53.142Z,99062.00
2018-07-12T02:51:55.403Z,99067.00
2018-07-12T02:53:57.628Z,99072.00
2018-07-12T02:56:00.192Z,99064.00
2018-07-12T02:58:02.486Z,99077.00
2018-07-12T03:00:05.634Z,99072.00
2018-07-12T03:02:10.885Z,99068.00
2018-07-12T03:04:14.423Z,99070.00
2018-07-12T03:06:17.947Z,99073.00
2018-07-12T03:08:22.400Z,99071.00
2018-07-12T03:10:24.636Z,99075.00
2018-07-12T03:12:26.863Z,99078.00
2018-07-12T03:14:29.418Z,99072.00
2018-07-12T03:16:31.794Z,99072.00
2018-07-12T03:18:34.201Z,99070.00
2018-07-12T03:20:36.450Z,99077.00
2018-07-12T03:22:38.970Z,99074.00
2018-07-12T03:24:41.183Z,99080.00
2018-07-12T03:26:43.386Z,99086.00
2018-07-12T03:28:46.085Z,99082.00
2018-07-12T03:30:48.317Z,99079.00
2018-07-12T03:32:50.650Z,99087.00
2018-07-12T03:34:53.197Z,99086.00
2018-07-12T03:36:55.433Z,99081.00
2018-07-12T03:38:57.828Z,99096.00
2018-07-12T03:41:00.590Z,99095.00
2018-07-12T03:43:02.922Z,99092.00
2018-07-12T03:45:06.418Z,99095.00
2018-07-12T03:47:11.955Z,99097.00
2018-07-12T03:49:15.888Z,99097.00
2018-07-12T03:51:20.669Z,99103.00
2018-07-12T03:53:24.455Z,99099.00
2018-07-12T03:55:26.815Z,99100.00
2018-07-12T03:57:29.187Z,99100.00
2018-07-12T03:59:31.882Z,99099.00
2018-07-12T04:01:34.155Z,99099.00
2018-07-12T04:03:36.419Z,99101.00
2018-07-12T04:05:38.664Z,99104.00
2018-07-12T04:07:41.352Z,99094.00
2018-07-12T04:09:43.606Z,99101.00
2018-07-12T04:11:45.841Z,99101.00
2018-07-12T04:13:48.071Z,99102.00
2018-07-12T04:15:50.526Z,99101.00
2018-07-12T04:17:52.764Z,99100.00
2018-07-12T04:19:55.189Z,99104.00
2018-07-12T04:21:57.867Z,99109.00
2018-07-12T04:24:00.194Z,99104.00
2018-07-12T04:26:02.541Z,99107.00
2018-07-12T04:28:06.342Z,99109.00
2018-07-12T04:30:11.736Z,99110.00
2018-07-12T04:32:15.832Z,99108.00
2018-07-12T04:34:19.441Z,99111.00
2018-07-12T04:36:25.201Z,99116.00
2018-07-12T04:38:28.081Z,99115.00
2018-07-12T04:40:30.307Z,99117.00
2018-07-12T04:42:32.858Z,99118.00
2018-07-12T04:44:35.237Z,99114.00
2018-07-12T04:46:37.622Z,99124.00
2018-07-12T04:48:40.369Z,99116.00
2018-07-12T04:50:42.650Z,99110.00
2018-07-12T04:52:45.070Z,99109.00
2018-07-12T04:54:47.517Z,99119.00
2018-07-12T04:56:50.398Z,99109.00
2018-07-12T04:58:52.661Z,99113.00
2018-07-12T05:00:55.162Z,99114.00
2018-07-12T05:02:57.672Z,99114.00
2018-07-12T05:04:59.930Z,99116.00
2018-07-12T05:07:02.185Z,99114.00
2018-07-12T05:09:08.171Z,99123.00
2018-07-12T05:11:12.059Z,99130.00
2018-07-12T05:13:15.994Z,99127.00
2018-07-12T05:15:19.894Z,99128.00
2018-07-12T05:17:23.240Z,99122.00
2018-07-12T05:19:25.520Z,99117.00
2018-07-12T05:21:28.833Z,99125.00
2018-07-12T05:23:31.091Z,99123.00
2018-07-12T05:25:33.413Z,99122.00
2018-07-12T05:27:36.404Z,99122.00
2018-07-12T05:29:39.271Z,99124.00
2018-07-12T05:31:41.709Z,99121.00
2018-07-12T05:33:44.224Z,99121.00
2018-07-12T05:35:48.163Z,99112.00
2018-07-12T05:37:52.012Z,99118.00
2018-07-12T05:39:56.563Z,99121.00
2018-07-12T05:42:00.707Z,99115.00
2018-07-12T05:44:05.011Z,99119.00
2018-07-12T05:46:13.568Z,99124.00
2018-07-12T05:48:20.552Z,99127.00
2018-07-12T05:50:25.595Z,99126.00
2018-07-12T05:52:29.843Z,99124.00
2018-07-12T05:54:33.760Z,99118.00
2018-07-12T05:56:37.280Z,99124.00
2018-07-12T05:58:41.819Z,99128.00
2018-07-12T06:00:45.419Z,99119.00
2018-07-12T06:02:48.979Z,99119.00
2018-07-12T06:04:53.428Z,99131.00
2018-07-12T06:06:57.001Z,99125.00
2018-07-12T06:09:01.016Z,99132.00
2018-07-12T06:11:05.643Z,99129.00
2018-07-12T06:13:11.728Z,99147.00
2018-07-12T06:15:17.000Z,99158.00
2018-07-12T06:17:23.569Z,99158.00
2018-07-12T06:19:27.597Z,99130.00
2018-07-12T06:21:31.357Z,99129.00
2018-07-12T06:23:35.253Z,99124.00
2018-07-12T06:25:39.041Z,99122.00
2018-07-12T06:27:43.096Z,99135.00
2018-07-12T06:29:47.086Z,99146.00
2018-07-12T06:31:51.406Z,99125.00
2018-07-12T06:33:55.493Z,99129.00
2018-07-12T06:35:59.312Z,99132.00
2018-07-12T06:38:03.045Z,99126.00
2018-07-12T06:40:09.393Z,99126.00
2018-07-12T06:42:16.091Z,99119.00
2018-07-12T06:44:23.777Z,99113.00
2018-07-12T06:46:28.178Z,99118.00
2018-07-12T06:48:32.717Z,99114.00
2018-07-12T06:50:36.225Z,99113.00
2018-07-12T06:52:39.972Z,99115.00
2018-07-12T06:54:43.863Z,99110.00
2018-07-12T06:56:47.872Z,99131.00
2018-07-12T06:58:52.371Z,99128.00
2018-07-12T07:00:56.002Z,99145.00
2018-07-12T07:02:59.787Z,99137.00
2018-07-12T07:05:03.428Z,99132.00
2018-07-12T07:07:08.542Z,99131.00
2018-07-12T07:09:14.924Z,99122.00
2018-07-12T07:11:22.825Z,99119.00
2018-07-12T07:13:26.838Z,99133.00
2018-07-12T07:15:30.726Z,99126.00
2018-07-12T07:17:34.443Z,99130.00
2018-07-12T07:19:38.538Z,99128.00
2018-07-12T07:21:42.229Z,99137.00
2018-07-12T07:23:45.959Z,99143.00
2018-07-12T07:25:49.996Z,99134.00
2018-07-12T07:27:53.666Z,99122.00
2018-07-12T07:29:57.260Z,99130.00
2018-07-12T07:32:01.338Z,99138.00
2018-07-12T07:34:05.151Z,99130.00
2018-07-12T07:36:12.045Z,99139.00
2018-07-12T07:38:17.021Z,99130.00
2018-07-12T07:40:25.496Z,99124.00
2018-07-12T07:42:29.909Z,99126.00
2018-07-12T07:44:34.073Z,99120.00
2018-07-12T07:46:37.607Z,99122.00
2018-07-12T07:48:41.121Z,99122.00
2018-07-12T07:50:45.752Z,99134.00
2018-07-12T07:52:49.465Z,99136.00
2018-07-12T07:54:53.292Z,99124.00
2018-07-12T07:56:57.379Z,99117.00
2018-07-12T07:59:00.942Z,99134.00
2018-07-12T08:01:07.165Z,99132.00
2018-07-12T08:03:14.993Z,99130.00
2018-07-12T08:05:23.364Z,99126.00
2018-07-12T08:07:27.036Z,99131.00
2018-07-12T08:09:31.091Z,99131.00
2018-07-12T08:11:34.792Z,99130.00
2018-07-12T08:13:38.406Z,99128.00
2018-07-12T08:15:42.457Z,99122.00
2018-07-12T08:17:46.634Z,99134.00
2018-07-12T08:19:50.830Z,99133.00
2018-07-12T08:22:07.399Z,99128.00
2018-07-12T08:24:13.928Z,99139.00
2018-07-12T08:26:20.728Z,99130.00
2018-07-12T08:28:27.050Z,99120.00
2018-07-12T08:30:31.377Z,99130.00
2018-07-12T08:32:35.510Z,99130.00
2018-07-12T08:34:39.537Z,99126.00
2018-07-12T08:36:43.354Z,99126.00
2018-07-12T08:38:47.441Z,99127.00
2018-07-12T08:40:51.898Z,99129.00
2018-07-12T08:42:55.942Z,99124.00
2018-07-12T08:45:00.020Z,99125.00
2018-07-12T08:47:04.654Z,99126.00
2018-07-12T08:49:11.183Z,99122.00
2018-07-12T08:51:16.917Z,99140.00
2018-07-12T08:53:21.631Z,99123.00
2018-07-12T08:55:25.638Z,99120.00
2018-07-12T08:57:29.886Z,99119.00
2018-07-12T08:59:34.136Z,99140.00
2018-07-12T09:01:45.586Z,99135.00
2018-07-12T09:03:49.355Z,99136.00
2018-07-12T09:05:53.146Z,99120.00
2018-07-12T09:07:56.739Z,99137.00
2018-07-12T09:10:00.366Z,99137.00
2018-07-12T09:12:04.849Z,99115.00
2018-07-12T09:14:12.447Z,99120.00
2018-07-12T09:16:18.456Z,99123.00
2018-07-12T09:18:24.236Z,99135.00
2018-07-12T09:20:28.684Z,99144.00
2018-07-12T09:22:32.684Z,99128.00
2018-07-12T09:24:36.472Z,99131.00
2018-07-12T09:26:40.194Z,99128.00
2018-07-12T09:28:43.752Z,99125.00
2018-07-12T09:30:52.391Z,99156.00
2018-07-12T09:32:56.533Z,99145.00
2018-07-12T09:35:00.691Z,99144.00
2018-07-12T09:37:04.547Z,99143.00
2018-07-12T09:39:10.993Z,99138.00
2018-07-12T09:41:16.047Z,99159.00
2018-07-12T09:43:21.544Z,99160.00
2018-07-12T09:45:25.681Z,99142.00
2018-07-12T09:47:29.708Z,99144.00
2018-07-12T09:49:33.452Z,99145.00
2018-07-12T09:51:37.049Z,99138.00
2018-07-12T09:53:43.011Z,99136.00
2018-07-12T09:55:48.760Z,99153.00
2018-07-12T09:58:04.060Z,99144.00
2018-07-12T10:00:10.237Z,99148.00
2018-07-12T10:02:23.109Z,99144.00
2018-07-12T10:04:28.131Z,99146.00
2018-07-12T10:06:33.789Z,99163.00
2018-07-12T10:08:42.841Z,99155.00
2018-07-12T10:10:52.279Z,99145.00
2018-07-12T10:13:01.422Z,99138.00
2018-07-12T10:15:12.456Z,99133.00
2018-07-12T10:17:22.356Z,99138.00
2018-07-12T10:19:27.192Z,99157.00
2018-07-12T10:21:30.928Z,99160.00
2018-07-12T10:23:38.001Z,99139.00
2018-07-12T10:25:41.958Z,99155.00
2018-07-12T10:27:45.985Z,99140.00
2018-07-12T10:29:50.379Z,99148.00
2018-07-12T10:31:56.895Z,99149.00
2018-07-12T10:34:00.831Z,99147.00
2018-07-12T10:36:31.275Z,99146.00
2018-07-12T10:38:35.104Z,99140.00
2018-07-12T10:40:38.941Z,99158.00
2018-07-12T10:42:43.073Z,99131.00
2018-07-12T10:44:46.935Z,99152.00
2018-07-12T10:46:50.471Z,99138.00
2018-07-12T10:48:54.359Z,99140.00
2018-07-12T10:50:57.981Z,99128.00
2018-07-12T10:53:01.970Z,99139.00
2018-07-12T10:55:07.195Z,99131.00
2018-07-12T10:57:14.333Z,99140.00
2018-07-12T10:59:22.426Z,99132.00
2018-07-12T11:01:26.603Z,99116.00
2018-07-12T11:03:31.520Z,99124.00
2018-07-12T11:05:37.563Z,99131.00
2018-07-12T11:07:48.296Z,99130.00
2018-07-12T11:09:57.192Z,99132.00
2018-07-12T11:12:01.457Z,99138.00
2018-07-12T11:14:07.230Z,99130.00
2018-07-12T11:16:15.315Z,99137.00
2018-07-12T11:18:23.278Z,99123.00
2018-07-12T11:20:27.414Z,99120.00
2018-07-12T11:22:38.322Z,99120.00
2018-07-12T11:24:42.487Z,99115.00
2018-07-12T11:26:46.634Z,99112.00
2018-07-12T11:28:50.340Z,99111.00
2018-07-12T11:30:53.889Z,99107.00
2018-07-12T11:32:58.451Z,99106.00
2018-07-12T11:35:02.771Z,99101.00
2018-07-12T11:37:10.787Z,99116.00
2018-07-12T11:39:16.570Z,99115.00
2018-07-12T11:41:25.601Z,99128.00
2018-07-12T11:43:29.624Z,99132.00
2018-07-12T11:45:33.638Z,99126.00
2018-07-12T11:47:37.435Z,99109.00
2018-07-12T11:49:40.997Z,99099.00
2018-07-12T11:51:44.933Z,99110.00
2018-07-12T11:53:48.606Z,99104.00
2018-07-12T11:55:52.462Z,99112.00
2018-07-12T11:57:57.105Z,99111.00
2018-07-12T12:00:00.832Z,99116.00
2018-07-12T12:02:05.194Z,99122.00
2018-07-12T12:04:13.421Z,99106.00
2018-07-12T12:06:19.944Z,99105.00
2018-07-12T12:08:25.017Z,99107.00
2018-07-12T12:10:29.173Z,99112.00
2018-07-12T12:12:33.049Z,99111.00
2018-07-12T12:14:36.833Z,99111.00
2018-07-12T12:16:40.976Z,99114.00
2018-07-12T12:18:45.128Z,99115.00
2018-07-12T12:20:48.816Z,99116.00
2018-07-12T12:22:52.468Z,99113.00
2018-07-12T12:24:57.256Z,99108.00
2018-07-12T12:27:01.292Z,99113.00
2018-07-12T12:29:06.301Z,99112.00
2018-07-12T12:31:13.536Z,99112.00
2018-07-12T12:33:20.572Z,99106.00
2018-07-12T12:35:27.116Z,99105.00
2018-07-12T12:37:31.356Z,99106.00
2018-07-12T12:39:34.980Z,99110.00
2018-07-12T12:41:39.105Z,99095.00
2018-07-12T12:43:42.933Z,99101.00
2018-07-12T12:45:46.606Z,99129.00
2018-07-12T12:47:50.217Z,99124.00
2018-07-12T12:49:54.184Z,99121.00
2018-07-12T12:51:57.809Z,99121.00
2018-07-12T12:54:01.776Z,99127.00
2018-07-12T12:56:06.472Z,99128.00
2018-07-12T12:58:18.333Z,99133.00
2018-07-12T13:00:23.319Z,99132.00
2018-07-12T13:02:27.261Z,99136.00
2018-07-12T13:04:30.844Z,99085.00
2018-07-12T13:06:34.643Z,99076.00
2018-07-12T13:08:38.183Z,99081.00
2018-07-12T13:10:42.021Z,99080.00
2018-07-12T13:12:45.825Z,99097.00
2018-07-12T13:14:49.688Z,99090.00
2018-07-12T13:16:53.233Z,99088.00
2018-07-12T13:18:57.308Z,99081.00
2018-07-12T13:21:00.948Z,99075.00
2018-07-12T13:23:05.095Z,99076.00
2018-07-12T13:25:12.287Z,99080.00
2018-07-12T13:27:18.298Z,99087.00
2018-07-12T13:29:23.462Z,99087.00
2018-07-12T13:31:27.302Z,99096.00
2018-07-12T13:33:30.935Z,99128.00
2018-07-12T13:35:34.666Z,99117.00
2018-07-12T13:37:38.270Z,99109.00
2018-07-12T13:39:41.964Z,99105.00
2018-07-12T13:41:45.869Z,99099.00
2018-07-12T13:43:55.355Z,99101.00
2018-07-12T13:46:00.246Z,99098.00
2018-07-12T13:48:05.049Z,99096.00
2018-07-12T13:50:11.274Z,99097.00
2018-07-12T13:52:18.097Z,99108.00
2018-07-12T13:54:23.251Z,99107.00
2018-07-12T13:56:27.152Z,99108.00
2018-07-12T13:58:31.343Z,99117.00
2018-07-12T14:00:35.025Z,99112.00
2018-07-12T14:02:39.100Z,99107.00
2018-07-12T14:04:42.914Z,99106.00
2018-07-12T14:06:46.757Z,99113.00
2018-07-12T14:08:51.534Z,99112.00
2018-07-12T14:10:55.450Z,99112.00
2018-07-12T14:12:59.386Z,99104.00
2018-07-12T14:15:04.902Z,99105.00
2018-07-12T14:17:12.734Z,99103.00
2018-07-12T14:19:19.020Z,99112.00
2018-07-12T14:21:23.999Z,99109.00
2018-07-12T14:23:27.866Z,99099.00
2018-07-12T14:25:31.723Z,99093.00
2018-07-12T14:27:35.918Z,99091.00
2018-07-12T14:29:39.546Z,99098.00
2018-07-12T14:31:44.962Z,99106.00
2018-07-12T14:33:49.298Z,99087.00
2018-07-12T14:35:53.098Z,99086.00
2018-07-12T14:37:58.111Z,99121.00
2018-07-12T14:40:02.177Z,99090.00
2018-07-12T14:42:06.911Z,99107.00
2018-07-12T14:44:14.320Z,99092.00
2018-07-12T14:46:22.266Z,99116.00
2018-07-12T14:48:25.939Z,99111.00
2018-07-12T14:50:29.966Z,99121.00
2018-07-12T14:52:33.972Z,99101.00
2018-07-12T14:54:42.318Z,99110.00
2018-07-12T14:56:46.031Z,99111.00
2018-07-12T14:58:50.856Z,99106.00
2018-07-12T15:00:54.679Z,99136.00
2018-07-12T15:02:58.891Z,99114.00
2018-07-12T15:05:04.624Z,99112.00
2018-07-12T15:07:12.028Z,99119.00
2018-07-12T15:09:17.558Z,99125.00
2018-07-12T15:11:25.994Z,99131.00
2018-07-12T15:13:29.738Z,99148.00
2018-07-12T15:15:33.339Z,99168.00
2018-07-12T15:17:37.398Z,99135.00
2018-07-12T15:19:40.995Z,99160.00
2018-07-12T15:21:45.473Z,99150.00
2018-07-12T15:23:49.121Z,99153.00
2018-07-12T15:25:52.909Z,99156.00
2018-07-12T15:27:56.988Z,99151.00
2018-07-12T15:30:00.787Z,99139.00
2018-07-12T15:32:05.093Z,99155.00
2018-07-12T15:34:12.530Z,99146.00
2018-07-12T15:36:18.986Z,99144.00
2018-07-12T15:38:31.206Z,99147.00
2018-07-12T15:40:35.455Z,99145.00
2018-07-12T15:42:39.458Z,99162.00
2018-07-12T15:44:49.192Z,99160.00
2018-07-12T15:46:54.986Z,99158.00
2018-07-12T15:49:02.009Z,99156.00
2018-07-12T15:51:08.440Z,99156.00
2018-07-12T15:53:23.512Z,99161.00
2018-07-12T15:55:32.291Z,99151.00
2018-07-12T15:57:41.096Z,99151.00
2018-07-12T15:59:46.147Z,99148.00
2018-07-12T16:01:52.034Z,99149.00
2018-07-12T16:04:01.913Z,99145.00
2018-07-12T16:06:09.460Z,99146.00
2018-07-12T16:08:20.613Z,99143.00
2018-07-12T16:10:27.699Z,99146.00
2018-07-12T16:12:35.047Z,99149.00
2018-07-12T16:14:41.149Z,99149.00
2018-07-12T16:16:46.338Z,99154.00
2018-07-12T16:18:54.813Z,99153.00
2018-07-12T16:20:59.045Z,99146.00
2018-07-12T16:23:04.617Z,99143.00
2018-07-12T16:25:09.969Z,99140.00
2018-07-12T16:27:17.514Z,99143.00
2018-07-12T16:29:26.165Z,99140.00
2018-07-12T16:31:31.863Z,99133.00
2018-07-12T16:33:38.551Z,99141.00
2018-07-12T16:35:43.428Z,99142.00
2018-07-12T16:37:47.166Z,99140.00
2018-07-12T16:39:52.003Z,99151.00
2018-07-12T16:41:56.554Z,99158.00
2018-07-12T16:44:00.535Z,99145.00
2018-07-12T16:46:07.528Z,99155.00
2018-07-12T16:48:18.362Z,99147.00
2018-07-12T16:50:24.787Z,99147.00
2018-07-12T16:52:29.441Z,99147.00
2018-07-12T16:54:34.536Z,99158.00
2018-07-12T16:56:38.989Z,99154.00
2018-07-12T16:58:46.989Z,99152.00
2018-07-12T17:00:52.436Z,99147.00
2018-07-12T17:02:58.149Z,99156.00
2018-07-12T17:05:04.252Z,99139.00
2018-07-12T17:07:09.849Z,99146.00
2018-07-12T17:09:15.993Z,99148.00
2018-07-12T17:11:23.324Z,99151.00
2018-07-12T17:13:26.903Z,99144.00
2018-07-12T17:15:30.788Z,99147.00
2018-07-12T17:17:34.705Z,99145.00
2018-07-12T17:19:39.218Z,99158.00
2018-07-12T17:21:44.222Z,99146.00
2018-07-12T17:23:48.318Z,99147.00
2018-07-12T17:25:52.340Z,99149.00
2018-07-12T17:27:57.191Z,99148.00
2018-07-12T17:30:02.213Z,99147.00
2018-07-12T17:32:06.220Z,99145.00
2018-07-12T17:34:15.462Z,99150.00
2018-07-12T17:36:21.461Z,99150.00
2018-07-12T17:38:27.095Z,99154.00
2018-07-12T17:40:30.666Z,99148.00
2018-07-12T17:42:36.073Z,99152.00
2018-07-12T17:44:39.983Z,99154.00
2018-07-12T17:46:44.507Z,99150.00
2018-07-12T17:48:48.422Z,99154.00
2018-07-12T17:50:52.128Z,99159.00
2018-07-12T17:52:55.849Z,99149.00
2018-07-12T17:54:59.477Z,99151.00
2018-07-12T17:57:04.296Z,99144.00
2018-07-12T17:59:13.328Z,99152.00
2018-07-12T18:01:18.716Z,99163.00
2018-07-12T18:03:25.313Z,99162.00
2018-07-12T18:05:32.184Z,99167.00
2018-07-12T18:07:36.109Z,99166.00
2018-07-12T18:09:40.047Z,99166.00
2018-07-12T18:11:43.705Z,99168.00
2018-07-12T18:13:47.787Z,99164.00
2018-07-12T18:15:52.654Z,99167.00
2018-07-12T18:17:56.395Z,99168.00
2018-07-12T18:20:00.746Z,99168.00
2018-07-12T18:22:07.005Z,99167.00
2018-07-12T18:24:17.373Z,99166.00
2018-07-12T18:26:25.019Z,99169.00
2018-07-12T18:28:35.222Z,99167.00
2018-07-12T18:30:41.184Z,99169.00
2018-07-12T18:32:46.532Z,99172.00
2018-07-12T18:34:59.332Z,99185.00
2018-07-12T18:37:07.350Z,99179.00
2018-07-12T18:39:17.697Z,99192.00
2018-07-12T18:41:35.226Z,99188.00
2018-07-12T18:43:39.429Z,99186.00
2018-07-12T18:45:51.757Z,99189.00
2018-07-12T18:47:55.763Z,99193.00
2018-07-12T18:50:01.870Z,99191.00
2018-07-12T18:52:10.961Z,99199.00
2018-07-12T18:54:19.011Z,99197.00
2018-07-12T18:56:24.777Z,99192.00
2018-07-12T18:58:29.991Z,99199.00
2018-07-12T19:00:34.328Z,99197.00
2018-07-12T19:02:41.897Z,99203.00
2018-07-12T19:04:46.783Z,99202.00
2018-07-12T19:06:51.672Z,99205.00
2018-07-12T19:08:57.845Z,99209.00
2018-07-12T19:11:04.226Z,99221.00
2018-07-12T19:13:13.384Z,99217.00
2018-07-12T19:15:20.695Z,99221.00
2018-07-12T19:17:32.491Z,99214.00
2018-07-12T19:19:38.037Z,99210.00
2018-07-12T19:21:43.653Z,99214.00
2018-07-12T19:23:49.668Z,99225.00
2018-07-12T19:25:53.877Z,99224.00
2018-07-12T19:27:59.404Z,99224.00
2018-07-12T19:30:03.353Z,99223.00
2018-07-12T19:32:11.796Z,99231.00
2018-07-12T19:34:20.182Z,99237.00
2018-07-12T19:36:25.937Z,99241.00
2018-07-12T19:38:30.028Z,99240.00
2018-07-12T19:40:35.088Z,99245.00
2018-07-12T19:42:41.839Z,99250.00
2018-07-12T19:44:47.299Z,99247.00
2018-07-12T19:46:53.744Z,99250.00
2018-07-12T19:49:01.078Z,99255.00
2018-07-12T19:51:07.317Z,99253.00
2018-07-12T19:53:15.880Z,99262.00
2018-07-12T19:55:20.810Z,99265.00
2018-07-12T19:57:27.527Z,99277.00
2018-07-12T19:59:34.147Z,99273.00
2018-07-12T20:01:38.665Z,99270.00
2018-07-12T20:03:44.753Z,99270.00
2018-07-12T20:05:49.746Z,99287.00
2018-07-12T20:07:55.935Z,99296.00
2018-07-12T20:10:01.052Z,99294.00
2018-07-12T20:12:07.137Z,99281.00
2018-07-12T20:14:14.150Z,99274.00
2018-07-12T20:16:20.692Z,99280.00
2018-07-12T20:18:24.677Z,99276.00
2018-07-12T20:20:28.538Z,99271.00
2018-07-12T20:22:32.332Z,99285.00
2018-07-12T20:24:36.099Z,99274.00
2018-07-12T20:26:40.879Z,99275.00
2018-07-12T20:28:44.543Z,99276.00
2018-07-12T20:30:49.514Z,99288.00
2018-07-12T20:32:54.452Z,99279.00
2018-07-12T20:34:59.003Z,99292.00
2018-07-12T20:37:03.029Z,99288.00
2018-07-12T20:39:11.224Z,99291.00
2018-07-12T20:41:17.947Z,99311.00
2018-07-12T20:43:23.885Z,99295.00
2018-07-12T20:45:28.329Z,99310.00
2018-07-12T20:47:31.885Z,99315.00
2018-07-12T20:49:35.485Z,99301.00
2018-07-12T20:51:39.507Z,99312.00
2018-07-12T20:53:43.163Z,99300.00
2018-07-12T20:55:48.963Z,99302.00
2018-07-12T20:57:53.281Z,99310.00
2018-07-12T20:59:56.909Z,99305.00
2018-07-12T21:02:00.783Z,99301.00
2018-07-12T21:04:05.941Z,99309.00
2018-07-12T21:06:12.975Z,99321.00
2018-07-12T21:08:19.587Z,99326.00
2018-07-12T21:10:24.017Z,99327.00
2018-07-12T21:12:27.684Z,99319.00
2018-07-12T21:14:31.400Z,99322.00
2018-07-12T21:16:35.358Z,99318.00
2018-07-12T21:18:39.862Z,99321.00
2018-07-12T21:20:44.720Z,99331.00
2018-07-12T21:22:49.042Z,99327.00
2018-07-12T21:24:53.353Z,99333.00
2018-07-12T21:26:56.977Z,99343.00
2018-07-12T21:29:01.946Z,99331.00
2018-07-12T21:31:06.275Z,99326.00
2018-07-12T21:33:14.198Z,99327.00
2018-07-12T21:35:22.746Z,99327.00
2018-07-12T21:37:27.602Z,99331.00
2018-07-12T21:39:31.440Z,99327.00
2018-07-12T21:41:35.459Z,99328.00
2018-07-12T21:43:39.248Z,99342.00
2018-07-12T21:45:43.278Z,99333.00
2018-07-12T21:47:47.458Z,99334.00
2018-07-12T21:49:52.307Z,99337.00
2018-07-12T21:51:56.066Z,99340.00
2018-07-12T21:54:01.174Z,99338.00
2018-07-12T21:56:08.277Z,99338.00
2018-07-12T21:58:15.330Z,99335.00
2018-07-12T22:00:26.159Z,99335.00
2018-07-12T22:02:33.521Z,99338.00
2018-07-12T22:04:39.307Z,99345.00
2018-07-12T22:06:55.176Z,99341.00
2018-07-12T22:08:59.685Z,99344.00
2018-07-12T22:11:06.779Z,99345.00
2018-07-12T22:13:16.601Z,99346.00
2018-07-12T22:15:23.195Z,99353.00
2018-07-12T22:17:29.859Z,99349.00
2018-07-12T22:19:35.070Z,99348.00
2018-07-12T22:21:40.333Z,99347.00
2018-07-12T22:23:44.558Z,99346.00
2018-07-12T22:25:48.267Z,99345.00
2018-07-12T22:27:52.680Z,99343.00
2018-07-12T22:29:56.633Z,99346.00
2018-07-12T22:32:00.575Z,99340.00
2018-07-12T22:34:05.664Z,99343.00
2018-07-12T22:36:13.278Z,99342.00
2018-07-12T22:38:19.011Z,99337.00
2018-07-12T22:40:25.061Z,99334.00
2018-07-12T22:42:29.459Z,99332.00
2018-07-12T22:44:34.037Z,99335.00
2018-07-12T22:46:37.607Z,99339.00
2018-07-12T22:48:41.579Z,99334.00
2018-07-12T22:50:49.437Z,99330.00
2018-07-12T22:52:53.260Z,99331.00
2018-07-12T22:54:56.997Z,99337.00
2018-07-12T22:57:01.378Z,99339.00
2018-07-12T22:59:05.710Z,99338.00
2018-07-12T23:01:12.949Z,99346.00
2018-07-12T23:03:19.551Z,99343.00
2018-07-12T23:05:24.348Z,99346.00
2018-07-12T23:07:28.073Z,99345.00
2018-07-12T23:09:32.002Z,99348.00
2018-07-12T23:11:35.534Z,99344.00
2018-07-12T23:13:39.167Z,99345.00
2018-07-12T23:15:44.228Z,99342.00
2018-07-12T23:17:48.341Z,99339.00
2018-07-12T23:19:51.974Z,99344.00
2018-07-12T23:21:55.952Z,99339.00
2018-07-12T23:24:01.059Z,99343.00
2018-07-12T23:26:05.520Z,99340.00
2018-07-12T23:28:12.695Z,99341.00
2018-07-12T23:30:19.304Z,99338.00
2018-07-12T23:32:23.724Z,99336.00
2018-07-12T23:35:08.317Z,99333.00
2018-07-12T23:37:16.388Z,99329.00
2018-07-12T23:39:21.843Z,99324.00
2018-07-12T23:41:25.711Z,99326.00
2018-07-12T23:43:30.242Z,99328.00
2018-07-12T23:45:33.855Z,99329.00
2018-07-12T23:47:37.683Z,99325.00
2018-07-12T23:49:41.230Z,99327.00
2018-07-12T23:51:45.365Z,99324.00
2018-07-12T23:53:50.598Z,99321.00
2018-07-12T23:55:54.245Z,99321.00
2018-07-12T23:57:58.072Z,99328.00
